Élőkép

Információk

Albatrosz Repülő Egyesület
8000 Székesfehérvár,
Radványi utca 6.

Adószám:
19092908-2-07

Bankszámla szám:
Budapest Bank
10102952-01361819-00000001

Telefon: +36 30 9598-897

Telephey: Börgönd repülőtér

Börgöndi repülõtér

LHBP METAR/TAF

[source: ADDS]
METAR
TAF LHBP 200500Z 2006/2106 30012G22KT CAVOK BECMG 2012/2015 26007KT BECMG 2021/2024 30015G29KT 9999 SCT025 BKN080 TEMPO 2021/2103 6000 SHRA BKN020 TAF
TAF LHBP 200500Z 2006/2106 30012G22KT CAVOK BECMG 2012/2015 26007KT BECMG 2021/2024 30015G29KT 9999 SCT025 BKN080 TEMPO 2021/2103 6000 SHRA BKN020 =
SR / SS: 06:30 / 15:01 UTC (Börgönd 2014-12-20)
Hungarian Chinese (Simplified) Croatian Czech English Finnish French German Hebrew Italian Japanese Polish Portuguese Romanian Russian Serbian Slovak Slovenian Spanish

Belépés tagoknak